Terminal Aerodrome Forecast
Issued by NWS

Home | Current Version | Previous Version | Text Only | Print | Product List | Glossary On
Versions: 1 2 3 4 5 6 7 8 9 10 11 12 13
000
FTUS42 TJSJ 051753 AAA
TAFJMZ
TAF AMD
TJMZ 051753Z 0518/0618 13011KT P6SM VCSH SCT025
      TEMPO 0518/0520 SHRA SCT025 BKN040
     FM052230 05005KT P6SM VCSH FEW030
     FM061330 09012KT P6SM FEW030 SCT050
      AMD NOT SKED=

USA.gov is the U.S. government's official web portal to all federal, state and local government web resources and services.